sensor_id;sensor_type;location;lat;lon;timestamp;pressure;altitude;pressure_sealevel;temperature;humidity
9784;BME280;4931;44.874;-1.092;2023-01-24T00:00:44;102557.06;;;2.25;100.00
9784;BME280;4931;44.874;-1.092;2023-01-24T00:03:10;102551.66;;;2.25;100.00
9784;BME280;4931;44.874;-1.092;2023-01-24T00:05:44;102558.09;;;2.24;100.00
9784;BME280;4931;44.874;-1.092;2023-01-24T00:08:14;102554.97;;;2.35;100.00
9784;BME280;4931;44.874;-1.092;2023-01-24T00:10:40;102558.50;;;2.36;100.00
9784;BME280;4931;44.874;-1.092;2023-01-24T00:13:12;102547.56;;;2.29;100.00
9784;BME280;4931;44.874;-1.092;2023-01-24T00:15:38;102535.03;;;2.28;100.00
9784;BME280;4931;44.874;-1.092;2023-01-24T00:18:04;102540.06;;;2.31;100.00
9784;BME280;4931;44.874;-1.092;2023-01-24T00:20:29;102540.19;;;2.38;100.00
9784;BME280;4931;44.874;-1.092;2023-01-24T00:22:55;102540.44;;;2.28;100.00
9784;BME280;4931;44.874;-1.092;2023-01-24T00:25:20;102535.53;;;2.31;100.00
9784;BME280;4931;44.874;-1.092;2023-01-24T00:27:46;102529.25;;;2.31;100.00
9784;BME280;4931;44.874;-1.092;2023-01-24T00:30:12;102535.03;;;2.28;100.00
9784;BME280;4931;44.874;-1.092;2023-01-24T00:32:38;102534.00;;;2.29;100.00
9784;BME280;4931;44.874;-1.092;2023-01-24T00:35:03;102539.44;;;2.29;100.00
9784;BME280;4931;44.874;-1.092;2023-01-24T00:37:29;102539.13;;;2.24;100.00
9784;BME280;4931;44.874;-1.092;2023-01-24T00:39:54;102523.25;;;2.21;100.00
9784;BME280;4931;44.874;-1.092;2023-01-24T00:42:20;102524.56;;;2.25;100.00
9784;BME280;4931;44.874;-1.092;2023-01-24T00:44:45;102515.66;;;2.16;100.00
9784;BME280;4931;44.874;-1.092;2023-01-24T00:47:11;102516.69;;;2.15;100.00
9784;BME280;4931;44.874;-1.092;2023-01-24T00:49:37;102520.53;;;2.21;100.00
9784;BME280;4931;44.874;-1.092;2023-01-24T00:52:02;102522.94;;;2.15;100.00
9784;BME280;4931;44.874;-1.092;2023-01-24T00:54:28;102518.19;;;2.18;100.00
9784;BME280;4931;44.874;-1.092;2023-01-24T00:56:53;102516.19;;;2.11;100.00
9784;BME280;4931;44.874;-1.092;2023-01-24T00:59:19;102514.44;;;2.19;100.00
9784;BME280;4931;44.874;-1.092;2023-01-24T01:01:44;102514.81;;;2.15;100.00
9784;BME280;4931;44.874;-1.092;2023-01-24T01:04:10;102512.84;;;2.09;100.00
9784;BME280;4931;44.874;-1.092;2023-01-24T01:06:36;102505.59;;;2.02;100.00
9784;BME280;4931;44.874;-1.092;2023-01-24T01:09:02;102515.72;;;2.08;100.00
9784;BME280;4931;44.874;-1.092;2023-01-24T01:11:28;102506.56;;;2.09;100.00
9784;BME280;4931;44.874;-1.092;2023-01-24T01:13:55;102514.88;;;2.07;100.00
9784;BME280;4931;44.874;-1.092;2023-01-24T01:16:21;102512.91;;;2.01;100.00
9784;BME280;4931;44.874;-1.092;2023-01-24T01:18:47;102511.03;;;2.02;100.00
9784;BME280;4931;44.874;-1.092;2023-01-24T01:21:15;102519.94;;;2.10;100.00
9784;BME280;4931;44.874;-1.092;2023-01-24T01:23:41;102519.97;;;2.02;100.00
9784;BME280;4931;44.874;-1.092;2023-01-24T01:26:08;102524.06;;;1.98;100.00
9784;BME280;4931;44.874;-1.092;2023-01-24T01:28:36;102519.50;;;1.98;100.00
9784;BME280;4931;44.874;-1.092;2023-01-24T01:31:02;102526.78;;;1.98;100.00
9784;BME280;4931;44.874;-1.092;2023-01-24T01:33:28;102518.53;;;1.91;100.00
9784;BME280;4931;44.874;-1.092;2023-01-24T01:35:53;102513.25;;;1.98;100.00
9784;BME280;4931;44.874;-1.092;2023-01-24T01:38:20;102516.97;;;1.97;100.00
9784;BME280;4931;44.874;-1.092;2023-01-24T01:40:46;102506.88;;;1.91;100.00
9784;BME280;4931;44.874;-1.092;2023-01-24T01:43:22;102517.28;;;2.02;100.00
9784;BME280;4931;44.874;-1.092;2023-01-24T01:45:53;102515.31;;;1.96;100.00
9784;BME280;4931;44.874;-1.092;2023-01-24T01:51:03;102515.53;;;2.09;100.00
9784;BME280;4931;44.874;-1.092;2023-01-24T01:53:47;102517.69;;;1.91;100.00
9784;BME280;4931;44.874;-1.092;2023-01-24T01:58:50;102516.25;;;2.03;100.00
9784;BME280;4931;44.874;-1.092;2023-01-24T02:01:16;102516.84;;;1.90;100.00
9784;BME280;4931;44.874;-1.092;2023-01-24T02:03:48;102522.50;;;1.80;100.00
9784;BME280;4931;44.874;-1.092;2023-01-24T02:08:49;102513.00;;;1.85;100.00
9784;BME280;4931;44.874;-1.092;2023-01-24T02:11:16;102519.59;;;1.82;100.00
9784;BME280;4931;44.874;-1.092;2023-01-24T02:14:01;102508.47;;;1.77;100.00
9784;BME280;4931;44.874;-1.092;2023-01-24T02:16:45;102509.50;;;1.99;100.00
9784;BME280;4931;44.874;-1.092;2023-01-24T02:19:20;102516.38;;;1.87;100.00
9784;BME280;4931;44.874;-1.092;2023-01-24T02:21:53;102506.97;;;1.74;100.00
9784;BME280;4931;44.874;-1.092;2023-01-24T02:24:29;102507.13;;;1.73;100.00
9784;BME280;4931;44.874;-1.092;2023-01-24T02:26:57;102506.25;;;1.80;100.00
9784;BME280;4931;44.874;-1.092;2023-01-24T02:29:22;102503.25;;;1.75;100.00
9784;BME280;4931;44.874;-1.092;2023-01-24T02:31:58;102512.69;;;1.79;100.00
9784;BME280;4931;44.874;-1.092;2023-01-24T02:34:25;102513.53;;;1.80;100.00
9784;BME280;4931;44.874;-1.092;2023-01-24T02:37:01;102516.78;;;1.75;100.00
9784;BME280;4931;44.874;-1.092;2023-01-24T02:42:14;102513.66;;;1.87;100.00
9784;BME280;4931;44.874;-1.092;2023-01-24T02:47:29;102511.28;;;1.83;100.00
9784;BME280;4931;44.874;-1.092;2023-01-24T02:50:00;102510.97;;;1.87;100.00
9784;BME280;4931;44.874;-1.092;2023-01-24T02:52:27;102510.84;;;1.80;100.00
9784;BME280;4931;44.874;-1.092;2023-01-24T02:55:11;102508.78;;;1.82;100.00
9784;BME280;4931;44.874;-1.092;2023-01-24T02:57:37;102506.25;;;1.80;100.00
9784;BME280;4931;44.874;-1.092;2023-01-24T03:00:21;102507.56;;;1.85;100.00
9784;BME280;4931;44.874;-1.092;2023-01-24T03:02:47;102506.88;;;1.91;100.00
9784;BME280;4931;44.874;-1.092;2023-01-24T03:05:13;102510.97;;;1.87;100.00
9784;BME280;4931;44.874;-1.092;2023-01-24T03:07:38;102509.97;;;1.79;100.00
9784;BME280;4931;44.874;-1.092;2023-01-24T03:10:11;102503.56;;;1.80;100.00
9784;BME280;4931;44.874;-1.092;2023-01-24T03:12:37;102508.28;;;1.78;100.00
9784;BME280;4931;44.874;-1.092;2023-01-24T03:15:22;102505.41;;;1.80;100.00
9784;BME280;4931;44.874;-1.092;2023-01-24T03:18:06;102504.94;;;1.76;100.00
9784;BME280;4931;44.874;-1.092;2023-01-24T03:20:50;102503.25;;;1.75;100.00
9784;BME280;4931;44.874;-1.092;2023-01-24T03:23:35;102511.84;;;1.79;100.00
9784;BME280;4931;44.874;-1.092;2023-01-24T03:26:19;102512.50;;;1.81;100.00
9784;BME280;4931;44.874;-1.092;2023-01-24T03:29:03;102512.38;;;1.74;100.00
9784;BME280;4931;44.874;-1.092;2023-01-24T03:31:48;102507.31;;;1.71;100.00
9784;BME280;4931;44.874;-1.092;2023-01-24T03:34:32;102510.84;;;1.80;100.00
9784;BME280;4931;44.874;-1.092;2023-01-24T03:37:01;102511.16;;;1.77;100.00
9784;BME280;4931;44.874;-1.092;2023-01-24T03:39:26;102507.75;;;1.83;100.00
9784;BME280;4931;44.874;-1.092;2023-01-24T03:42:10;102518.78;;;1.81;100.00
9784;BME280;4931;44.874;-1.092;2023-01-24T03:44:36;102513.69;;;1.78;100.00
9784;BME280;4931;44.874;-1.092;2023-01-24T03:47:02;102511.66;;;1.80;100.00
9784;BME280;4931;44.874;-1.092;2023-01-24T03:49:27;102503.38;;;1.82;100.00
9784;BME280;4931;44.874;-1.092;2023-01-24T03:52:12;102508.13;;;1.80;100.00
9784;BME280;4931;44.874;-1.092;2023-01-24T03:54:59;102506.25;;;1.80;100.00
9784;BME280;4931;44.874;-1.092;2023-01-24T03:57:29;102504.56;;;1.79;100.00
9784;BME280;4931;44.874;-1.092;2023-01-24T03:59:54;102509.16;;;1.79;100.00
9784;BME280;4931;44.874;-1.092;2023-01-24T04:02:20;102500.53;;;1.75;100.00
9784;BME280;4931;44.874;-1.092;2023-01-24T04:04:46;102502.88;;;1.78;100.00
9784;BME280;4931;44.874;-1.092;2023-01-24T04:07:31;102500.84;;;1.80;100.00
9784;BME280;4931;44.874;-1.092;2023-01-24T04:09:57;102498.44;;;1.86;100.00
9784;BME280;4931;44.874;-1.092;2023-01-24T04:12:24;102506.88;;;1.91;100.00
9784;BME280;4931;44.874;-1.092;2023-01-24T04:14:50;102496.69;;;1.93;100.00
9784;BME280;4931;44.874;-1.092;2023-01-24T04:17:15;102508.19;;;1.95;100.00
9784;BME280;4931;44.874;-1.092;2023-01-24T04:19:42;102508.72;;;1.90;100.00
9784;BME280;4931;44.874;-1.092;2023-01-24T04:22:07;102499.75;;;1.90;100.00
9784;BME280;4931;44.874;-1.092;2023-01-24T04:24:33;102512.03;;;2.01;100.00
9784;BME280;4931;44.874;-1.092;2023-01-24T04:26:58;102490.97;;;1.88;100.00
9784;BME280;4931;44.874;-1.092;2023-01-24T04:29:24;102489.56;;;2.00;100.00
9784;BME280;4931;44.874;-1.092;2023-01-24T04:31:49;102493.53;;;1.89;100.00
9784;BME280;4931;44.874;-1.092;2023-01-24T04:34:15;102502.84;;;1.87;100.00
9784;BME280;4931;44.874;-1.092;2023-01-24T04:36:41;102500.84;;;1.80;100.00
9784;BME280;4931;44.874;-1.092;2023-01-24T04:39:06;102498.13;;;1.80;100.00
9784;BME280;4931;44.874;-1.092;2023-01-24T04:41:32;102506.25;;;1.80;100.00
9784;BME280;4931;44.874;-1.092;2023-01-24T04:43:58;102499.28;;;1.86;100.00
9784;BME280;4931;44.874;-1.092;2023-01-24T04:46:23;102506.25;;;1.80;100.00
9784;BME280;4931;44.874;-1.092;2023-01-24T04:48:49;102499.84;;;1.73;100.00
9784;BME280;4931;44.874;-1.092;2023-01-24T04:51:14;102506.19;;;1.89;100.00
9784;BME280;4931;44.874;-1.092;2023-01-24T04:53:40;102505.19;;;1.90;100.00
9784;BME280;4931;44.874;-1.092;2023-01-24T04:56:07;102498.66;;;1.76;100.00
9784;BME280;4931;44.874;-1.092;2023-01-24T04:58:33;102512.50;;;1.81;100.00
9784;BME280;4931;44.874;-1.092;2023-01-24T05:00:59;102517.78;;;1.74;100.00
9784;BME280;4931;44.874;-1.092;2023-01-24T05:03:25;102519.84;;;1.72;100.00
9784;BME280;4931;44.874;-1.092;2023-01-24T05:05:51;102513.38;;;1.73;100.00
9784;BME280;4931;44.874;-1.092;2023-01-24T05:08:18;102516.47;;;1.70;100.00
9784;BME280;4931;44.874;-1.092;2023-01-24T05:10:43;102519.47;;;1.75;100.00
9784;BME280;4931;44.874;-1.092;2023-01-24T05:13:09;102523.91;;;1.68;100.00
9784;BME280;4931;44.874;-1.092;2023-01-24T05:15:34;102530.28;;;1.75;100.00
9784;BME280;4931;44.874;-1.092;2023-01-24T05:18:01;102528.88;;;1.88;100.00
9784;BME280;4931;44.874;-1.092;2023-01-24T05:20:27;102532.94;;;1.83;100.00
9784;BME280;4931;44.874;-1.092;2023-01-24T05:22:55;102535.72;;;1.75;100.00
9784;BME280;4931;44.874;-1.092;2023-01-24T05:25:21;102520.81;;;1.79;100.00
9784;BME280;4931;44.874;-1.092;2023-01-24T05:27:46;102527.41;;;1.77;100.00
9784;BME280;4931;44.874;-1.092;2023-01-24T05:30:12;102529.59;;;1.81;100.00
9784;BME280;4931;44.874;-1.092;2023-01-24T05:32:37;102529.09;;;1.78;100.00
9784;BME280;4931;44.874;-1.092;2023-01-24T05:35:04;102525.25;;;1.72;100.00
9784;BME280;4931;44.874;-1.092;2023-01-24T05:37:29;102526.25;;;1.71;100.00
9784;BME280;4931;44.874;-1.092;2023-01-24T05:39:55;102529.63;;;1.73;100.00
9784;BME280;4931;44.874;-1.092;2023-01-24T05:42:20;102538.78;;;1.72;100.00
9784;BME280;4931;44.874;-1.092;2023-01-24T05:44:46;102529.28;;;1.76;100.00
9784;BME280;4931;44.874;-1.092;2023-01-24T05:47:11;102535.34;;;1.78;100.00
9784;BME280;4931;44.874;-1.092;2023-01-24T05:49:37;102517.13;;;1.72;100.00
9784;BME280;4931;44.874;-1.092;2023-01-24T05:52:03;102522.84;;;1.77;100.00
9784;BME280;4931;44.874;-1.092;2023-01-24T05:54:28;102529.94;;;1.78;100.00
9784;BME280;4931;44.874;-1.092;2023-01-24T05:56:54;102530.63;;;1.80;100.00
9784;BME280;4931;44.874;-1.092;2023-01-24T05:59:20;102531.13;;;1.76;100.00
9784;BME280;4931;44.874;-1.092;2023-01-24T06:01:45;102538.91;;;1.79;100.00
9784;BME280;4931;44.874;-1.092;2023-01-24T06:04:11;102534.81;;;1.83;100.00
9784;BME280;4931;44.874;-1.092;2023-01-24T06:06:37;102541.81;;;1.77;100.00
9784;BME280;4931;44.874;-1.092;2023-01-24T06:09:03;102536.34;;;1.86;100.00
9784;BME280;4931;44.874;-1.092;2023-01-24T06:11:29;102525.38;;;1.79;100.00
9784;BME280;4931;44.874;-1.092;2023-01-24T06:13:55;102539.34;;;1.91;100.00
9784;BME280;4931;44.874;-1.092;2023-01-24T06:16:24;102536.66;;;1.82;100.00
9784;BME280;4931;44.874;-1.092;2023-01-24T06:18:51;102527.19;;;1.87;100.00
9784;BME280;4931;44.874;-1.092;2023-01-24T06:23:42;102541.63;;;1.79;100.00
9784;BME280;4931;44.874;-1.092;2023-01-24T06:26:09;102534.66;;;1.85;100.00
9784;BME280;4931;44.874;-1.092;2023-01-24T06:28:35;102540.06;;;1.85;100.00
9784;BME280;4931;44.874;-1.092;2023-01-24T06:33:57;102550.38;;;1.89;100.00
9784;BME280;4931;44.874;-1.092;2023-01-24T06:36:52;102561.72;;;1.85;100.00
9784;BME280;4931;44.874;-1.092;2023-01-24T06:39:23;102561.19;;;1.89;100.00
9784;BME280;4931;44.874;-1.092;2023-01-24T06:41:49;102564.03;;;1.88;100.00
9784;BME280;4931;44.874;-1.092;2023-01-24T06:44:15;102567.47;;;1.81;100.00
9784;BME280;4931;44.874;-1.092;2023-01-24T06:46:40;102562.78;;;1.75;100.00
9784;BME280;4931;44.874;-1.092;2023-01-24T06:49:06;102566.09;;;1.86;100.00
9784;BME280;4931;44.874;-1.092;2023-01-24T06:51:31;102574.94;;;1.79;100.00
9784;BME280;4931;44.874;-1.092;2023-01-24T06:53:57;102574.56;;;1.82;100.00
9784;BME280;4931;44.874;-1.092;2023-01-24T06:56:23;102576.63;;;1.80;100.00
9784;BME280;4931;44.874;-1.092;2023-01-24T06:58:48;102576.25;;;1.83;100.00
9784;BME280;4931;44.874;-1.092;2023-01-24T07:01:14;102568.44;;;1.89;100.00
9784;BME280;4931;44.874;-1.092;2023-01-24T07:03:39;102574.00;;;1.95;100.00
9784;BME280;4931;44.874;-1.092;2023-01-24T07:06:05;102579.28;;;1.89;100.00
9784;BME280;4931;44.874;-1.092;2023-01-24T07:08:30;102574.56;;;1.82;100.00
9784;BME280;4931;44.874;-1.092;2023-01-24T07:10:59;102583.03;;;1.79;100.00
9784;BME280;4931;44.874;-1.092;2023-01-24T07:13:25;102579.50;;;1.79;100.00
9784;BME280;4931;44.874;-1.092;2023-01-24T07:15:51;102581.19;;;1.80;100.00
9784;BME280;4931;44.874;-1.092;2023-01-24T07:18:18;102584.41;;;1.75;100.00
9784;BME280;4931;44.874;-1.092;2023-01-24T07:20:44;102580.69;;;1.76;100.00
9784;BME280;4931;44.874;-1.092;2023-01-24T07:23:23;102583.41;;;1.76;100.00
9784;BME280;4931;44.874;-1.092;2023-01-24T07:25:51;102591.84;;;1.73;100.00
9784;BME280;4931;44.874;-1.092;2023-01-24T07:28:17;102591.84;;;1.81;100.00
9784;BME280;4931;44.874;-1.092;2023-01-24T07:30:43;102589.84;;;1.75;100.00
9784;BME280;4931;44.874;-1.092;2023-01-24T07:33:11;102596.22;;;1.82;100.00
9784;BME280;4931;44.874;-1.092;2023-01-24T07:35:38;102598.28;;;1.80;100.00
9784;BME280;4931;44.874;-1.092;2023-01-24T07:38:04;102597.91;;;1.83;100.00
9784;BME280;4931;44.874;-1.092;2023-01-24T07:40:30;102601.50;;;1.76;100.00
9784;BME280;4931;44.874;-1.092;2023-01-24T07:42:58;102600.28;;;1.78;100.00
9784;BME280;4931;44.874;-1.092;2023-01-24T07:45:24;102598.47;;;1.71;100.00
9784;BME280;4931;44.874;-1.092;2023-01-24T07:47:54;102603.69;;;1.80;100.00
9784;BME280;4931;44.874;-1.092;2023-01-24T07:50:20;102604.19;;;1.84;100.00
9784;BME280;4931;44.874;-1.092;2023-01-24T07:52:50;102611.47;;;1.75;100.00
9784;BME280;4931;44.874;-1.092;2023-01-24T07:55:15;102614.31;;;1.82;100.00
9784;BME280;4931;44.874;-1.092;2023-01-24T07:57:40;102617.72;;;1.76;100.00
9784;BME280;4931;44.874;-1.092;2023-01-24T08:00:06;102614.81;;;1.86;100.00
9784;BME280;4931;44.874;-1.092;2023-01-24T08:02:33;102625.34;;;1.80;100.00
9784;BME280;4931;44.874;-1.092;2023-01-24T08:04:58;102627.03;;;1.81;100.00
9784;BME280;4931;44.874;-1.092;2023-01-24T08:07:27;102628.69;;;1.82;100.00
9784;BME280;4931;44.874;-1.092;2023-01-24T08:09:52;102630.75;;;1.80;100.00
9784;BME280;4931;44.874;-1.092;2023-01-24T08:12:18;102628.69;;;1.82;100.00
9784;BME280;4931;44.874;-1.092;2023-01-24T08:14:43;102635.78;;;1.83;100.00
9784;BME280;4931;44.874;-1.092;2023-01-24T08:17:09;102610.00;;;2.97;100.00
9784;BME280;4931;44.874;-1.092;2023-01-24T08:19:35;102617.97;;;2.29;100.00
9784;BME280;4931;44.874;-1.092;2023-01-24T08:22:02;102644.00;;;2.07;100.00
9784;BME280;4931;44.874;-1.092;2023-01-24T08:24:28;102639.28;;;2.01;100.00
9784;BME280;4931;44.874;-1.092;2023-01-24T08:26:53;102640.13;;;2.01;100.00
9784;BME280;4931;44.874;-1.092;2023-01-24T08:29:19;102646.56;;;2.00;100.00
9784;BME280;4931;44.874;-1.092;2023-01-24T08:31:45;102645.13;;;2.12;100.00
9784;BME280;4931;44.874;-1.092;2023-01-24T08:34:10;102654.13;;;2.05;100.00
9784;BME280;4931;44.874;-1.092;2023-01-24T08:36:36;102660.06;;;2.08;100.00
9784;BME280;4931;44.874;-1.092;2023-01-24T08:39:02;102657.41;;;2.00;100.00
9784;BME280;4931;44.874;-1.092;2023-01-24T08:41:29;102659.97;;;1.93;100.00
9784;BME280;4931;44.874;-1.092;2023-01-24T08:43:55;102658.09;;;1.94;100.00
9784;BME280;4931;44.874;-1.092;2023-01-24T08:46:21;102660.88;;;2.09;100.00
9784;BME280;4931;44.874;-1.092;2023-01-24T08:48:46;102665.66;;;2.07;100.00
9784;BME280;4931;44.874;-1.092;2023-01-24T08:51:12;102671.56;;;2.02;100.00
9784;BME280;4931;44.874;-1.092;2023-01-24T08:53:37;102668.56;;;1.97;100.00
9784;BME280;4931;44.874;-1.092;2023-01-24T08:56:03;102666.16;;;2.02;100.00
9784;BME280;4931;44.874;-1.092;2023-01-24T08:58:29;102673.78;;;2.07;100.00
9784;BME280;4931;44.874;-1.092;2023-01-24T09:00:54;102667.22;;;2.01;100.00
9784;BME280;4931;44.874;-1.092;2023-01-24T09:03:20;102674.69;;;1.91;100.00
9784;BME280;4931;44.874;-1.092;2023-01-24T09:05:45;102671.56;;;2.02;100.00
9784;BME280;4931;44.874;-1.092;2023-01-24T09:08:11;102672.31;;;1.96;100.00
9784;BME280;4931;44.874;-1.092;2023-01-24T09:10:37;102675.69;;;1.90;100.00
9784;BME280;4931;44.874;-1.092;2023-01-24T09:13:03;102676.66;;;2.05;100.00
9784;BME280;4931;44.874;-1.092;2023-01-24T09:15:29;102676.03;;;1.95;100.00
9784;BME280;4931;44.874;-1.092;2023-01-24T09:17:55;102680.06;;;1.99;100.00
9784;BME280;4931;44.874;-1.092;2023-01-24T09:20:21;102685.78;;;2.04;100.00
9784;BME280;4931;44.874;-1.092;2023-01-24T09:22:46;102700.34;;;2.03;100.00
9784;BME280;4931;44.874;-1.092;2023-01-24T09:25:12;102698.47;;;2.12;100.00
9784;BME280;4931;44.874;-1.092;2023-01-24T09:27:38;102695.94;;;2.10;100.00
9784;BME280;4931;44.874;-1.092;2023-01-24T09:30:08;102704.06;;;2.10;100.00
9784;BME280;4931;44.874;-1.092;2023-01-24T09:32:34;102706.41;;;2.13;100.00
9784;BME280;4931;44.874;-1.092;2023-01-24T09:35:00;102703.34;;;2.16;100.00
9784;BME280;4931;44.874;-1.092;2023-01-24T09:37:26;102705.22;;;2.16;100.00
9784;BME280;4931;44.874;-1.092;2023-01-24T09:39:52;102711.13;;;2.11;100.00
9784;BME280;4931;44.874;-1.092;2023-01-24T09:42:39;102707.09;;;2.07;100.00
9784;BME280;4931;44.874;-1.092;2023-01-24T09:45:22;102715.41;;;2.06;100.00
9784;BME280;4931;44.874;-1.092;2023-01-24T09:47:56;102709.28;;;2.12;100.00
9784;BME280;4931;44.874;-1.092;2023-01-24T09:50:44;102715.84;;;2.18;100.00
9784;BME280;4931;44.874;-1.092;2023-01-24T09:53:23;102717.56;;;2.19;100.00
9784;BME280;4931;44.874;-1.092;2023-01-24T09:55:50;102719.19;;;2.28;100.00
9784;BME280;4931;44.874;-1.092;2023-01-24T09:58:32;102721.06;;;2.27;100.00
9784;BME280;4931;44.874;-1.092;2023-01-24T10:01:04;102721.22;;;2.34;100.00
9784;BME280;4931;44.874;-1.092;2023-01-24T10:03:31;102726.31;;;2.29;100.00
9784;BME280;4931;44.874;-1.092;2023-01-24T10:06:00;102737.16;;;2.29;100.00
9784;BME280;4931;44.874;-1.092;2023-01-24T10:08:43;102728.34;;;2.27;100.00
9784;BME280;4931;44.874;-1.092;2023-01-24T10:11:25;102730.16;;;2.35;100.00
9784;BME280;4931;44.874;-1.092;2023-01-24T10:14:06;102735.59;;;2.35;100.00
9784;BME280;4931;44.874;-1.092;2023-01-24T10:24:35;102733.69;;;2.43;100.00
9784;BME280;4931;44.874;-1.092;2023-01-24T10:27:15;102743.16;;;2.47;100.00
9784;BME280;4931;44.874;-1.092;2023-01-24T10:29:43;102749.25;;;2.49;100.00
9784;BME280;4931;44.874;-1.092;2023-01-24T10:32:15;102748.88;;;2.53;100.00
9784;BME280;4931;44.874;-1.092;2023-01-24T10:34:46;102751.91;;;2.58;100.00
9784;BME280;4931;44.874;-1.092;2023-01-24T10:37:19;102755.00;;;2.46;100.00
9784;BME280;4931;44.874;-1.092;2023-01-24T10:39:46;102751.91;;;2.58;100.00
9784;BME280;4931;44.874;-1.092;2023-01-24T10:44:50;102751.66;;;2.68;100.00
9784;BME280;4931;44.874;-1.092;2023-01-24T10:47:48;102759.63;;;2.69;100.00
9784;BME280;4931;44.874;-1.092;2023-01-24T10:50:17;102760.66;;;2.68;100.00
9784;BME280;4931;44.874;-1.092;2023-01-24T10:52:44;102756.84;;;2.54;100.00
9784;BME280;4931;44.874;-1.092;2023-01-24T10:55:31;102763.25;;;2.61;100.00
9784;BME280;4931;44.874;-1.092;2023-01-24T10:58:22;102761.88;;;2.65;100.00
9784;BME280;4931;44.874;-1.092;2023-01-24T11:00:59;102759.03;;;2.59;100.00
9784;BME280;4931;44.874;-1.092;2023-01-24T11:03:29;102765.41;;;2.66;100.00
9784;BME280;4931;44.874;-1.092;2023-01-24T11:05:57;102754.94;;;2.63;100.00
9784;BME280;4931;44.874;-1.092;2023-01-24T11:08:25;102758.28;;;2.65;100.00
9784;BME280;4931;44.874;-1.092;2023-01-24T11:10:55;102759.34;;;2.64;100.00
9784;BME280;4931;44.874;-1.092;2023-01-24T11:13:31;102761.56;;;2.83;100.00
9784;BME280;4931;44.874;-1.092;2023-01-24T11:16:06;102760.25;;;2.79;100.00
9784;BME280;4931;44.874;-1.092;2023-01-24T11:18:57;102754.13;;;2.86;100.00
9784;BME280;4931;44.874;-1.092;2023-01-24T11:21:27;102753.63;;;2.82;100.00
9784;BME280;4931;44.874;-1.092;2023-01-24T11:24:13;102768.34;;;2.88;100.00
9784;BME280;4931;44.874;-1.092;2023-01-24T11:29:19;102754.47;;;2.82;100.00
9784;BME280;4931;44.874;-1.092;2023-01-24T11:31:57;102753.16;;;3.25;100.00
9784;BME280;4931;44.874;-1.092;2023-01-24T11:34:39;102755.69;;;3.03;100.00
9784;BME280;4931;44.874;-1.092;2023-01-24T11:47:27;102737.91;;;3.24;100.00
9784;BME280;4931;44.874;-1.092;2023-01-24T11:55:50;102730.47;;;3.18;100.00
9784;BME280;4931;44.874;-1.092;2023-01-24T12:06:26;102735.56;;;3.21;100.00
9784;BME280;4931;44.874;-1.092;2023-01-24T12:09:17;102733.88;;;3.20;100.00
9784;BME280;4931;44.874;-1.092;2023-01-24T12:14:33;102728.44;;;3.20;100.00
9784;BME280;4931;44.874;-1.092;2023-01-24T12:20:06;102719.59;;;3.26;100.00
9784;BME280;4931;44.874;-1.092;2023-01-24T12:22:37;102726.09;;;3.17;100.00
9784;BME280;4931;44.874;-1.092;2023-01-24T12:25:13;102710.19;;;3.13;100.00
9784;BME280;4931;44.874;-1.092;2023-01-24T12:27:42;102708.34;;;3.14;100.00
9784;BME280;4931;44.874;-1.092;2023-01-24T12:30:47;102707.69;;;3.27;100.00
9784;BME280;4931;44.874;-1.092;2023-01-24T12:35:43;102700.91;;;3.31;100.00
9784;BME280;4931;44.874;-1.092;2023-01-24T12:38:29;102702.84;;;3.37;100.00
9784;BME280;4931;44.874;-1.092;2023-01-24T12:43:53;102699.78;;;3.40;100.00
9784;BME280;4931;44.874;-1.092;2023-01-24T12:46:39;102697.19;;;3.47;100.00
9784;BME280;4931;44.874;-1.092;2023-01-24T12:49:30;102690.53;;;3.49;100.00
9784;BME280;4931;44.874;-1.092;2023-01-24T12:52:09;102710.06;;;3.45;100.00
9784;BME280;4931;44.874;-1.092;2023-01-24T12:55:01;102701.00;;;3.53;100.00
9784;BME280;4931;44.874;-1.092;2023-01-24T12:57:34;102701.38;;;3.49;100.00
9784;BME280;4931;44.874;-1.092;2023-01-24T13:00:05;102707.47;;;3.52;100.00
9784;BME280;4931;44.874;-1.092;2023-01-24T13:05:51;102715.00;;;3.41;100.00
9784;BME280;4931;44.874;-1.092;2023-01-24T13:11:23;102707.66;;;3.50;100.00
9784;BME280;4931;44.874;-1.092;2023-01-24T13:14:09;102715.00;;;3.41;100.00
9784;BME280;4931;44.874;-1.092;2023-01-24T13:26:05;102705.59;;;3.67;100.00
9784;BME280;4931;44.874;-1.092;2023-01-24T13:34:20;102707.50;;;3.67;100.00
9784;BME280;4931;44.874;-1.092;2023-01-24T13:36:49;102713.47;;;3.62;100.00
9784;BME280;4931;44.874;-1.092;2023-01-24T13:39:34;102702.59;;;3.77;100.00
9784;BME280;4931;44.874;-1.092;2023-01-24T13:42:12;102698.44;;;3.74;100.00
9784;BME280;4931;44.874;-1.092;2023-01-24T13:44:43;102701.69;;;3.70;100.00
9784;BME280;4931;44.874;-1.092;2023-01-24T13:49:45;102702.44;;;3.78;100.00
9784;BME280;4931;44.874;-1.092;2023-01-24T13:54:59;102710.78;;;3.92;100.00
9784;BME280;4931;44.874;-1.092;2023-01-24T13:57:26;102712.81;;;3.90;100.00
9784;BME280;4931;44.874;-1.092;2023-01-24T14:13:41;102730.63;;;4.07;100.00
9784;BME280;4931;44.874;-1.092;2023-01-24T14:16:11;102728.94;;;4.06;100.00
9784;BME280;4931;44.874;-1.092;2023-01-24T14:21:35;102736.50;;;4.11;100.00
9784;BME280;4931;44.874;-1.092;2023-01-24T14:24:29;102736.25;;;4.21;100.00
9784;BME280;4931;44.874;-1.092;2023-01-24T14:27:01;102741.31;;;4.09;100.00
9784;BME280;4931;44.874;-1.092;2023-01-24T14:29:40;102746.16;;;4.13;100.00
9784;BME280;4931;44.874;-1.092;2023-01-24T14:34:56;102747.56;;;4.24;100.00
9784;BME280;4931;44.874;-1.092;2023-01-24T14:37:25;102748.88;;;4.28;100.00
9784;BME280;4931;44.874;-1.092;2023-01-24T14:39:52;102751.78;;;4.27;100.00
9784;BME280;4931;44.874;-1.092;2023-01-24T14:42:17;102743.63;;;4.27;100.00
9784;BME280;4931;44.874;-1.092;2023-01-24T14:44:53;102733.28;;;4.52;100.00
9784;BME280;4931;44.874;-1.092;2023-01-24T14:47:22;102736.13;;;4.44;100.00
9784;BME280;4931;44.874;-1.092;2023-01-24T14:49:54;102738.09;;;4.35;100.00
9784;BME280;4931;44.874;-1.092;2023-01-24T14:54:57;102739.78;;;4.36;100.00
9784;BME280;4931;44.874;-1.092;2023-01-24T14:57:32;102736.78;;;4.31;100.00
9784;BME280;4931;44.874;-1.092;2023-01-24T15:02:59;102737.22;;;4.35;100.00
9784;BME280;4931;44.874;-1.092;2023-01-24T15:05:33;102738.91;;;4.36;100.00
9784;BME280;4931;44.874;-1.092;2023-01-24T15:08:03;102733.88;;;4.32;100.00
9784;BME280;4931;44.874;-1.092;2023-01-24T15:13:06;102744.66;;;4.26;100.00
9784;BME280;4931;44.874;-1.092;2023-01-24T15:15:33;102748.78;;;4.22;100.00